createdAt,value
2019-02-20T00:01:51.164Z,17.03
2019-02-20T00:04:16.910Z,16.90
2019-02-20T00:06:42.716Z,18.07
2019-02-20T00:09:08.424Z,22.00
2019-02-20T00:11:34.168Z,16.97
2019-02-20T00:13:59.938Z,20.63
2019-02-20T00:16:25.816Z,20.20
2019-02-20T00:18:52.374Z,23.37
2019-02-20T00:21:18.131Z,20.37
2019-02-20T00:23:43.889Z,22.67
2019-02-20T00:26:09.640Z,17.57
2019-02-20T00:28:35.429Z,19.20
2019-02-20T00:31:01.179Z,18.20
2019-02-20T00:33:26.936Z,19.97
2019-02-20T00:35:52.679Z,25.03
2019-02-20T00:38:18.443Z,22.43
2019-02-20T00:40:44.193Z,22.73
2019-02-20T00:43:09.957Z,22.90
2019-02-20T00:45:37.603Z,27.57
2019-02-20T00:48:14.091Z,18.67
2019-02-20T00:50:41.731Z,24.27
2019-02-20T00:53:15.038Z,25.87
2019-02-20T00:55:40.804Z,26.43
2019-02-20T00:58:06.558Z,26.70
2019-02-20T01:00:32.319Z,20.83
2019-02-20T01:02:58.060Z,28.83
2019-02-20T01:05:23.818Z,28.07
2019-02-20T01:07:49.560Z,19.93
2019-02-20T01:10:15.324Z,28.13
2019-02-20T01:12:41.081Z,28.37
2019-02-20T01:15:08.869Z,29.90
2019-02-20T01:17:34.598Z,19.63
2019-02-20T01:20:00.458Z,29.73
2019-02-20T01:22:26.211Z,26.90
2019-02-20T01:24:51.971Z,25.20
2019-02-20T01:27:17.724Z,29.07
2019-02-20T01:29:45.414Z,21.33
2019-02-20T01:32:11.168Z,21.97
2019-02-20T01:34:36.945Z,25.63
2019-02-20T01:37:02.787Z,26.87
2019-02-20T01:39:28.638Z,25.63
2019-02-20T01:41:54.678Z,25.67
2019-02-20T01:44:20.443Z,28.13
2019-02-20T01:46:46.202Z,22.00
2019-02-20T01:49:11.964Z,28.53
2019-02-20T01:51:37.728Z,24.73
2019-02-20T01:54:03.488Z,27.03
2019-02-20T01:56:29.249Z,24.83
2019-02-20T01:58:54.998Z,21.37
2019-02-20T02:01:20.758Z,23.30
2019-02-20T02:03:46.507Z,27.37
2019-02-20T02:06:12.270Z,25.43
2019-02-20T02:08:38.016Z,24.83
2019-02-20T02:11:03.785Z,21.93
2019-02-20T02:13:29.535Z,26.90
2019-02-20T02:15:55.296Z,24.33
2019-02-20T02:18:21.049Z,24.97
2019-02-20T02:20:46.799Z,23.93
2019-02-20T02:23:19.627Z,22.27
2019-02-20T02:25:40.207Z,25.00
2019-02-20T02:28:05.957Z,27.57
2019-02-20T02:30:31.719Z,24.57
2019-02-20T02:32:57.475Z,25.40
2019-02-20T02:35:23.229Z,30.43
2019-02-20T02:37:48.988Z,26.37
2019-02-20T02:40:14.733Z,26.23
2019-02-20T02:42:40.508Z,24.80
2019-02-20T02:45:06.265Z,29.47
2019-02-20T02:47:32.038Z,26.17
2019-02-20T02:49:57.802Z,22.43
2019-02-20T02:52:23.573Z,25.40
2019-02-20T02:54:49.331Z,26.33
2019-02-20T02:57:15.091Z,18.40
2019-02-20T02:59:40.846Z,25.97
2019-02-20T03:02:06.606Z,27.30
2019-02-20T03:04:32.359Z,25.00
2019-02-20T03:06:58.129Z,25.47
2019-02-20T03:09:23.883Z,25.13
2019-02-20T03:11:49.642Z,22.67
2019-02-20T03:14:15.390Z,22.07
2019-02-20T03:16:41.155Z,23.40
2019-02-20T03:19:06.911Z,18.17
2019-02-20T03:21:32.673Z,25.90
2019-02-20T03:23:58.423Z,28.40
2019-02-20T03:26:24.187Z,21.17
2019-02-20T03:28:49.929Z,23.00
2019-02-20T03:31:15.696Z,22.93
2019-02-20T03:33:41.433Z,23.23
2019-02-20T03:36:07.190Z,20.57
2019-02-20T03:38:32.937Z,18.10
2019-02-20T03:40:58.789Z,22.77
2019-02-20T03:43:24.549Z,17.67
2019-02-20T03:45:50.301Z,20.33
2019-02-20T03:48:16.087Z,20.90
2019-02-20T03:50:41.834Z,23.53
2019-02-20T03:53:07.733Z,22.87
2019-02-20T03:55:33.578Z,17.93
2019-02-20T03:57:59.339Z,22.77
2019-02-20T04:00:25.088Z,25.70
2019-02-20T04:02:50.850Z,21.20
2019-02-20T04:05:16.598Z,22.30
2019-02-20T04:07:42.362Z,22.23
2019-02-20T04:10:09.107Z,22.33
2019-02-20T04:12:34.975Z,22.07
2019-02-20T04:15:00.740Z,22.00
2019-02-20T04:17:26.501Z,17.63
2019-02-20T04:19:52.252Z,19.43
2019-02-20T04:22:18.018Z,24.30
2019-02-20T04:24:43.773Z,23.70
2019-02-20T04:27:09.536Z,26.70
2019-02-20T04:29:35.285Z,25.90
2019-02-20T04:32:01.057Z,22.63
2019-02-20T04:34:26.813Z,19.20
2019-02-20T04:36:52.606Z,20.90
2019-02-20T04:39:18.379Z,25.33
2019-02-20T04:41:44.138Z,25.83
2019-02-20T04:44:09.921Z,26.27
2019-02-20T04:46:35.677Z,25.77
2019-02-20T04:49:01.453Z,22.20
2019-02-20T04:51:27.204Z,23.80
2019-02-20T04:53:52.965Z,24.70
2019-02-20T04:56:18.709Z,25.20
2019-02-20T04:58:46.281Z,28.60
2019-02-20T05:01:12.029Z,24.73
2019-02-20T05:03:37.801Z,28.03
2019-02-20T05:06:03.554Z,23.87
2019-02-20T05:08:29.315Z,27.37
2019-02-20T05:10:55.075Z,29.73
2019-02-20T05:13:20.875Z,29.77
2019-02-20T05:15:46.622Z,29.13
2019-02-20T05:18:12.382Z,29.13
2019-02-20T05:20:38.155Z,26.37
2019-02-20T05:23:03.919Z,25.27
2019-02-20T05:25:29.706Z,29.77
2019-02-20T05:27:55.437Z,27.83
2019-02-20T05:30:21.206Z,28.17
2019-02-20T05:32:46.979Z,30.20
2019-02-20T05:35:12.735Z,28.17
2019-02-20T05:37:39.725Z,29.37
2019-02-20T05:40:07.264Z,26.47
2019-02-20T05:42:33.037Z,33.50
2019-02-20T05:44:58.831Z,26.80
2019-02-20T05:47:24.585Z,30.20
2019-02-20T05:49:50.363Z,27.47
2019-02-20T05:52:16.108Z,28.73
2019-02-20T05:54:41.873Z,33.77
2019-02-20T05:57:07.644Z,29.27
2019-02-20T05:59:33.404Z,28.37
2019-02-20T06:01:59.152Z,28.90
2019-02-20T06:04:24.908Z,25.83
2019-02-20T06:06:50.660Z,30.90
2019-02-20T06:09:16.416Z,33.77
2019-02-20T06:11:42.166Z,30.83
2019-02-20T06:14:07.930Z,41.20
2019-02-20T06:16:33.695Z,28.60
2019-02-20T06:18:59.485Z,31.30
2019-02-20T06:21:25.228Z,33.77
2019-02-20T06:23:51.005Z,36.20
2019-02-20T06:26:16.759Z,34.27
2019-02-20T06:28:42.537Z,31.67
2019-02-20T06:31:08.293Z,35.37
2019-02-20T06:33:34.073Z,33.33
2019-02-20T06:35:59.847Z,30.27
2019-02-20T06:38:25.614Z,29.07
2019-02-20T06:40:51.388Z,35.23
2019-02-20T06:43:17.138Z,36.17
2019-02-20T06:45:42.906Z,37.20
2019-02-20T06:48:08.661Z,33.20
2019-02-20T06:50:34.440Z,37.07
2019-02-20T06:53:00.189Z,36.13
2019-02-20T06:55:25.973Z,39.33
2019-02-20T06:57:51.722Z,35.83
2019-02-20T07:00:17.514Z,32.90
2019-02-20T07:02:43.242Z,40.70
2019-02-20T07:05:32.765Z,39.13
2019-02-20T07:08:17.237Z,34.43
2019-02-20T07:11:03.454Z,33.93
2019-02-20T07:13:33.004Z,35.03
2019-02-20T07:16:21.703Z,38.33
2019-02-20T07:19:02.923Z,34.43
2019-02-20T07:21:44.602Z,37.87
2019-02-20T07:24:23.034Z,37.50
2019-02-20T07:27:00.975Z,35.97
2019-02-20T07:29:58.050Z,33.60
2019-02-20T07:32:23.802Z,38.13
2019-02-20T07:34:49.586Z,38.60
2019-02-20T07:37:15.324Z,37.67
2019-02-20T07:39:41.087Z,39.00
2019-02-20T07:42:06.835Z,36.07
2019-02-20T07:44:32.585Z,34.97
2019-02-20T07:46:58.345Z,42.80
2019-02-20T07:49:24.107Z,35.47
2019-02-20T07:51:49.890Z,37.37
2019-02-20T07:54:15.632Z,43.03
2019-02-20T07:56:41.394Z,30.73
2019-02-20T07:59:07.145Z,34.83
2019-02-20T08:01:32.913Z,36.93
2019-02-20T08:03:58.655Z,36.67
2019-02-20T08:06:24.417Z,34.50
2019-02-20T08:08:50.168Z,35.80
2019-02-20T08:11:15.934Z,33.17
2019-02-20T08:13:41.678Z,34.40
2019-02-20T08:16:07.458Z,32.83
2019-02-20T08:18:33.212Z,35.47
2019-02-20T08:20:58.970Z,35.03
2019-02-20T08:23:24.720Z,33.63
2019-02-20T08:25:50.479Z,36.23
2019-02-20T08:28:16.231Z,30.43
2019-02-20T08:30:42.118Z,39.53
2019-02-20T08:33:07.881Z,34.47
2019-02-20T08:35:33.649Z,31.03
2019-02-20T08:37:59.537Z,37.07
2019-02-20T08:40:31.525Z,37.70
2019-02-20T08:42:57.404Z,36.97
2019-02-20T08:45:23.151Z,34.27
2019-02-20T08:47:48.916Z,31.30
2019-02-20T08:50:16.632Z,35.47
2019-02-20T08:52:42.395Z,36.63
2019-02-20T08:55:08.846Z,38.83
2019-02-20T08:57:34.660Z,29.67
2019-02-20T09:00:00.379Z,32.87
2019-02-20T09:02:26.139Z,36.27
2019-02-20T09:04:51.891Z,29.73
2019-02-20T09:07:17.655Z,26.90
2019-02-20T09:09:43.410Z,35.20
2019-02-20T09:12:09.194Z,33.53
2019-02-20T09:14:34.943Z,34.97
2019-02-20T09:17:00.714Z,32.33
2019-02-20T09:19:26.459Z,30.00
2019-02-20T09:21:52.235Z,33.10
2019-02-20T09:24:17.996Z,36.63
2019-02-20T09:26:43.806Z,37.40
2019-02-20T09:29:09.591Z,31.40
2019-02-20T09:31:35.328Z,31.30
2019-02-20T09:34:01.113Z,30.07
2019-02-20T09:36:26.862Z,35.40
2019-02-20T09:38:52.639Z,37.83
2019-02-20T09:41:18.392Z,36.77
2019-02-20T09:43:44.884Z,35.97
2019-02-20T09:46:10.639Z,31.50
2019-02-20T09:48:36.409Z,31.83
2019-02-20T09:51:02.184Z,31.43
2019-02-20T09:53:27.950Z,34.37
2019-02-20T09:55:53.739Z,34.00
2019-02-20T09:58:19.526Z,33.53
2019-02-20T10:00:45.282Z,38.30
2019-02-20T10:03:11.048Z,35.70
2019-02-20T10:05:36.805Z,36.03
2019-02-20T10:08:04.449Z,29.57
2019-02-20T10:10:30.328Z,34.83
2019-02-20T10:12:56.155Z,31.13
2019-02-20T10:15:21.932Z,36.93
2019-02-20T10:17:47.688Z,34.20
2019-02-20T10:20:13.449Z,31.90
2019-02-20T10:22:39.197Z,33.70
2019-02-20T10:25:09.999Z,37.00
2019-02-20T10:27:35.754Z,34.47
2019-02-20T10:30:01.533Z,30.97
2019-02-20T10:32:27.418Z,36.17
2019-02-20T10:34:53.448Z,38.33
2019-02-20T10:37:19.218Z,39.77
2019-02-20T10:39:44.999Z,38.53
2019-02-20T10:42:10.747Z,29.23
2019-02-20T10:44:36.561Z,32.93
2019-02-20T10:47:02.296Z,37.73
2019-02-20T10:49:28.119Z,38.60
2019-02-20T10:51:53.867Z,35.87
2019-02-20T10:54:19.624Z,38.10
2019-02-20T10:56:45.393Z,31.07
2019-02-20T10:59:11.166Z,36.30
2019-02-20T11:01:36.927Z,32.90
2019-02-20T11:04:03.704Z,36.50
2019-02-20T11:06:29.607Z,35.40
2019-02-20T11:08:55.358Z,43.97
2019-02-20T11:11:21.810Z,36.30
2019-02-20T11:13:47.769Z,33.00
2019-02-20T11:16:16.988Z,36.70
2019-02-20T11:18:42.764Z,37.07
2019-02-20T11:21:09.361Z,36.00
2019-02-20T11:23:35.883Z,39.50
2019-02-20T11:26:04.834Z,37.80
2019-02-20T11:28:30.669Z,37.43
2019-02-20T11:30:56.917Z,39.20
2019-02-20T11:33:23.297Z,34.50
2019-02-20T11:35:49.129Z,33.80
2019-02-20T11:38:14.885Z,39.33
2019-02-20T11:40:40.654Z,31.63
2019-02-20T11:43:06.427Z,32.77
2019-02-20T11:45:32.197Z,44.07
2019-02-20T11:47:57.964Z,41.67
2019-02-20T11:50:23.745Z,34.50
2019-02-20T11:52:49.489Z,41.83
2019-02-20T11:55:15.254Z,38.67
2019-02-20T11:57:41.009Z,40.23
2019-02-20T12:00:16.075Z,37.57
2019-02-20T12:02:42.303Z,39.87
2019-02-20T12:05:08.233Z,38.17
2019-02-20T12:07:33.994Z,32.23
2019-02-20T12:09:59.745Z,30.87
2019-02-20T12:12:25.523Z,40.00
2019-02-20T12:14:51.311Z,41.70
2019-02-20T12:17:17.111Z,37.13
2019-02-20T12:19:42.857Z,31.53
2019-02-20T12:22:08.658Z,37.93
2019-02-20T12:24:34.412Z,36.33
2019-02-20T12:27:00.189Z,33.37
2019-02-20T12:29:25.952Z,33.90
2019-02-20T12:31:52.711Z,35.80
2019-02-20T12:34:18.796Z,31.37
2019-02-20T12:36:44.579Z,35.23
2019-02-20T12:39:11.042Z,34.03
2019-02-20T12:41:36.833Z,33.17
2019-02-20T12:44:02.587Z,34.97
2019-02-20T12:46:28.365Z,32.93
2019-02-20T12:48:54.130Z,38.93
2019-02-20T12:51:20.015Z,33.70
2019-02-20T12:53:45.768Z,34.43
2019-02-20T12:56:11.589Z,30.83
2019-02-20T12:58:38.367Z,36.90
2019-02-20T13:01:04.279Z,36.57
2019-02-20T13:03:30.057Z,32.67
2019-02-20T13:05:55.821Z,32.90
2019-02-20T13:08:21.584Z,32.93
2019-02-20T13:10:47.370Z,32.73
2019-02-20T13:13:13.094Z,38.27
2019-02-20T13:15:38.948Z,41.70
2019-02-20T13:18:04.727Z,30.60
2019-02-20T13:20:30.481Z,26.33
2019-02-20T13:22:56.250Z,28.33
2019-02-20T13:25:21.998Z,33.13
2019-02-20T13:27:47.788Z,26.27
2019-02-20T13:30:13.635Z,31.73
2019-02-20T13:32:39.418Z,28.50
2019-02-20T13:35:05.186Z,27.37
2019-02-20T13:37:30.947Z,27.90
2019-02-20T13:39:56.716Z,21.87
2019-02-20T13:42:22.510Z,27.43
2019-02-20T13:44:48.325Z,26.27
2019-02-20T13:47:14.081Z,24.30
2019-02-20T13:49:39.848Z,29.47
2019-02-20T13:52:05.614Z,26.07
2019-02-20T13:54:31.399Z,19.90
2019-02-20T13:57:02.003Z,21.20
2019-02-20T13:59:24.934Z,25.47
2019-02-20T14:01:51.086Z,24.47
2019-02-20T14:04:16.868Z,24.37
2019-02-20T14:06:42.690Z,21.37
2019-02-20T14:09:08.485Z,22.30
2019-02-20T14:11:34.251Z,22.03
2019-02-20T14:14:00.727Z,23.33
2019-02-20T14:16:26.499Z,21.63
2019-02-20T14:18:52.282Z,20.67
2019-02-20T14:21:18.054Z,16.53
2019-02-20T14:23:44.288Z,27.20
2019-02-20T14:26:10.055Z,21.77
2019-02-20T14:28:35.854Z,23.27
2019-02-20T14:31:01.614Z,24.07
2019-02-20T14:33:27.371Z,28.50
2019-02-20T14:35:53.125Z,24.67
2019-02-20T14:38:20.847Z,27.73
2019-02-20T14:40:46.625Z,23.60
2019-02-20T14:43:12.413Z,26.43
2019-02-20T14:45:38.478Z,27.13
2019-02-20T14:48:04.235Z,29.37
2019-02-20T14:50:30.016Z,24.33
2019-02-20T14:52:55.802Z,25.83
2019-02-20T14:55:21.550Z,26.80
2019-02-20T14:57:47.293Z,28.00
2019-02-20T15:00:14.162Z,27.53
2019-02-20T15:02:40.017Z,27.57
2019-02-20T15:05:05.788Z,22.40
2019-02-20T15:07:33.829Z,26.37
2019-02-20T15:09:59.604Z,25.97
2019-02-20T15:12:25.372Z,23.00
2019-02-20T15:14:51.136Z,24.17
2019-02-20T15:17:16.886Z,30.13
2019-02-20T15:19:42.646Z,29.70
2019-02-20T15:22:08.394Z,24.30
2019-02-20T15:24:34.159Z,25.40
2019-02-20T15:26:59.900Z,24.27
2019-02-20T15:29:25.865Z,26.63
2019-02-20T15:31:51.609Z,27.33
2019-02-20T15:34:17.370Z,27.17
2019-02-20T15:36:43.121Z,30.57
2019-02-20T15:39:08.902Z,29.73
2019-02-20T15:41:34.654Z,30.77
2019-02-20T15:44:00.439Z,26.37
2019-02-20T15:46:26.186Z,25.37
2019-02-20T15:48:51.965Z,28.33
2019-02-20T15:51:18.129Z,28.67
2019-02-20T15:53:43.876Z,25.27
2019-02-20T15:56:09.636Z,29.37
2019-02-20T15:58:35.408Z,25.80
2019-02-20T16:01:01.274Z,25.27
2019-02-20T16:03:27.033Z,31.23
2019-02-20T16:05:52.785Z,23.77
2019-02-20T16:08:18.536Z,26.17
2019-02-20T16:10:44.306Z,27.53
2019-02-20T16:13:10.048Z,24.13
2019-02-20T16:15:36.136Z,34.03
2019-02-20T16:18:01.890Z,29.80
2019-02-20T16:20:27.655Z,32.03
2019-02-20T16:22:53.422Z,33.47
2019-02-20T16:25:19.199Z,31.20
2019-02-20T16:27:47.549Z,30.50
2019-02-20T16:30:13.215Z,37.37
2019-02-20T16:32:38.966Z,35.03
2019-02-20T16:35:07.761Z,31.73
2019-02-20T16:37:33.583Z,36.60
2019-02-20T16:39:59.363Z,33.47
2019-02-20T16:42:25.109Z,31.50
2019-02-20T16:44:50.880Z,30.10
2019-02-20T16:47:16.664Z,30.17
2019-02-20T16:49:42.438Z,34.33
2019-02-20T16:52:08.194Z,30.40
2019-02-20T16:54:33.952Z,29.33
2019-02-20T16:56:59.699Z,30.07
2019-02-20T16:59:25.561Z,31.27
2019-02-20T17:01:53.056Z,28.67
2019-02-20T17:04:18.880Z,34.53
2019-02-20T17:06:44.844Z,34.50
2019-02-20T17:09:10.596Z,36.40
2019-02-20T17:11:36.385Z,35.50
2019-02-20T17:14:02.130Z,33.50
2019-02-20T17:16:27.904Z,36.07
2019-02-20T17:18:54.063Z,36.53
2019-02-20T17:21:19.833Z,35.70
2019-02-20T17:23:45.576Z,34.07
2019-02-20T17:26:11.342Z,32.60
2019-02-20T17:28:37.091Z,29.23
2019-02-20T17:31:02.872Z,31.33
2019-02-20T17:33:28.618Z,26.70
2019-02-20T17:35:54.377Z,30.47
2019-02-20T17:38:20.131Z,28.13
2019-02-20T17:40:46.295Z,24.27
2019-02-20T17:43:12.060Z,31.10
2019-02-20T17:45:37.824Z,30.07
2019-02-20T17:48:03.581Z,25.90
2019-02-20T17:50:29.361Z,28.40
2019-02-20T17:52:55.136Z,26.40
2019-02-20T17:55:20.896Z,22.27
2019-02-20T17:57:46.650Z,29.57
2019-02-20T18:00:14.198Z,23.00
2019-02-20T18:02:40.080Z,26.63
2019-02-20T18:05:06.724Z,28.73
2019-02-20T18:07:32.513Z,23.13
2019-02-20T18:09:58.279Z,28.23
2019-02-20T18:12:24.036Z,17.47
2019-02-20T18:14:49.814Z,22.33
2019-02-20T18:17:15.583Z,24.50
2019-02-20T18:19:41.339Z,23.30
2019-02-20T18:22:07.109Z,22.73
2019-02-20T18:24:32.890Z,19.50
2019-02-20T18:26:58.664Z,19.90
2019-02-20T18:29:24.428Z,18.27
2019-02-20T18:31:50.185Z,22.43
2019-02-20T18:34:15.936Z,19.27
2019-02-20T18:36:41.701Z,20.10
2019-02-20T18:39:07.691Z,18.20
2019-02-20T18:41:33.451Z,14.60
2019-02-20T18:43:59.180Z,16.10
2019-02-20T18:46:24.940Z,20.60
2019-02-20T18:48:50.710Z,18.33
2019-02-20T18:51:16.503Z,19.57
2019-02-20T18:53:42.273Z,19.10
2019-02-20T18:56:08.050Z,20.10
2019-02-20T18:58:34.406Z,14.50
2019-02-20T19:01:00.212Z,15.20
2019-02-20T19:03:25.989Z,15.43
2019-02-20T19:05:51.758Z,16.97
2019-02-20T19:08:30.474Z,16.37
2019-02-20T19:11:07.555Z,16.03
2019-02-20T19:13:58.148Z,17.83
2019-02-20T19:16:47.407Z,15.20
2019-02-20T19:19:32.184Z,17.50
2019-02-20T19:22:21.511Z,13.90
2019-02-20T19:25:19.822Z,17.67
2019-02-20T19:27:58.178Z,14.97
2019-02-20T19:30:50.648Z,12.70
2019-02-20T19:33:32.116Z,11.97
2019-02-20T19:36:07.068Z,15.07
2019-02-20T19:38:54.809Z,12.70
2019-02-20T19:41:36.556Z,11.93
2019-02-20T19:44:18.043Z,12.53
2019-02-20T19:47:11.327Z,13.23
2019-02-20T19:49:46.559Z,14.57
2019-02-20T19:52:16.107Z,16.70
2019-02-20T19:54:45.712Z,18.07
2019-02-20T19:57:18.339Z,21.33
2019-02-20T20:00:02.831Z,15.63
2019-02-20T20:02:38.463Z,14.83
2019-02-20T20:05:23.007Z,15.03
2019-02-20T20:08:16.746Z,13.53
2019-02-20T20:11:10.482Z,13.37
2019-02-20T20:13:46.214Z,14.33
2019-02-20T20:16:21.495Z,13.03
2019-02-20T20:19:10.487Z,14.27
2019-02-20T20:21:54.776Z,13.67
2019-02-20T20:24:27.074Z,16.20
2019-02-20T20:26:56.607Z,13.83
2019-02-20T20:29:53.316Z,11.83
2019-02-20T20:32:22.847Z,11.67
2019-02-20T20:35:20.966Z,14.53
2019-02-20T20:38:10.237Z,12.80
2019-02-20T20:40:45.743Z,12.67
2019-02-20T20:43:34.514Z,16.00
2019-02-20T20:46:16.182Z,13.77
2019-02-20T20:48:54.605Z,13.33
2019-02-20T20:51:46.664Z,11.57
2019-02-20T20:54:21.805Z,16.63
2019-02-20T20:56:57.741Z,14.83
2019-02-20T20:59:25.583Z,12.13
2019-02-20T21:02:09.271Z,12.50
2019-02-20T21:04:50.623Z,11.67
2019-02-20T21:07:25.949Z,13.43
2019-02-20T21:09:58.022Z,13.33
2019-02-20T21:12:39.144Z,15.80
2019-02-20T21:15:20.380Z,16.20
2019-02-20T21:17:59.051Z,15.03
2019-02-20T21:20:49.645Z,12.13
2019-02-20T21:23:41.216Z,14.03
2019-02-20T21:26:19.942Z,14.27
2019-02-20T21:28:58.412Z,13.40
2019-02-20T21:31:30.519Z,17.37
2019-02-20T21:34:03.236Z,15.03
2019-02-20T21:36:38.649Z,12.93
2019-02-20T21:39:22.654Z,15.77
2019-02-20T21:42:10.256Z,13.87
2019-02-20T21:44:51.946Z,15.00
2019-02-20T21:47:36.702Z,17.40
2019-02-20T21:50:12.033Z,15.00
2019-02-20T21:53:01.067Z,18.40
2019-02-20T21:55:51.858Z,13.47
2019-02-20T21:58:39.555Z,13.97
2019-02-20T22:01:21.165Z,17.57
2019-02-20T22:04:21.017Z,14.30
2019-02-20T22:07:02.229Z,17.90
2019-02-20T22:09:34.333Z,16.30
2019-02-20T22:12:12.284Z,11.90
2019-02-20T22:14:50.936Z,15.77
2019-02-20T22:17:23.286Z,17.40
2019-02-20T22:19:58.437Z,16.90
2019-02-20T22:22:36.401Z,20.93
2019-02-20T22:25:15.049Z,16.57
2019-02-20T22:28:02.786Z,14.37
2019-02-20T22:30:32.368Z,15.13
2019-02-20T22:33:04.506Z,17.90
2019-02-20T22:35:53.470Z,20.87
2019-02-20T22:38:40.750Z,19.43
2019-02-20T22:41:25.496Z,19.03
2019-02-20T22:44:20.533Z,17.87
2019-02-20T22:47:08.246Z,15.03
2019-02-20T22:49:40.553Z,16.73
2019-02-20T22:52:16.273Z,17.10
2019-02-20T22:55:12.286Z,19.83
2019-02-20T22:57:44.897Z,20.77
2019-02-20T23:00:42.212Z,16.27
2019-02-20T23:03:35.668Z,18.17
2019-02-20T23:06:35.078Z,19.40
2019-02-20T23:09:10.262Z,17.00
2019-02-20T23:11:50.758Z,16.50
2019-02-20T23:14:19.942Z,17.17
2019-02-20T23:16:45.749Z,18.37
2019-02-20T23:19:11.491Z,18.80
2019-02-20T23:21:37.263Z,15.07
2019-02-20T23:24:03.032Z,18.53
2019-02-20T23:26:28.786Z,16.57
2019-02-20T23:28:54.654Z,16.90
2019-02-20T23:31:20.405Z,17.03
2019-02-20T23:33:46.176Z,21.17
2019-02-20T23:36:11.948Z,17.80
2019-02-20T23:38:37.724Z,18.17
2019-02-20T23:41:03.474Z,19.67
2019-02-20T23:43:29.248Z,16.53
2019-02-20T23:45:55.002Z,18.57
2019-02-20T23:48:20.777Z,19.20
2019-02-20T23:50:46.551Z,20.50
2019-02-20T23:53:12.316Z,15.87
2019-02-20T23:55:38.088Z,18.53
2019-02-20T23:58:03.942Z,19.03
